sensor_id;sensor_type;location;lat;lon;timestamp;pressure;altitude;pressure_sealevel;temperature;humidity
7834;BME280;3962;42.696;23.354;2022-12-29T00:02:01;96157.38;;;4.70;88.56
7834;BME280;3962;42.696;23.354;2022-12-29T00:04:28;96150.00;;;4.61;89.12
7834;BME280;3962;42.696;23.354;2022-12-29T00:06:55;96146.91;;;4.55;89.67
7834;BME280;3962;42.696;23.354;2022-12-29T00:09:22;96152.09;;;4.56;90.77
7834;BME280;3962;42.696;23.354;2022-12-29T00:11:49;96158.28;;;4.55;90.81
7834;BME280;3962;42.696;23.354;2022-12-29T00:14:16;96148.00;;;4.51;90.51
7834;BME280;3962;42.696;23.354;2022-12-29T00:17:02;96160.75;;;4.58;90.55
7834;BME280;3962;42.696;23.354;2022-12-29T00:19:29;96152.38;;;4.66;91.15
7834;BME280;3962;42.696;23.354;2022-12-29T00:22:14;96154.47;;;4.75;91.02
7834;BME280;3962;42.696;23.354;2022-12-29T00:24:59;96154.47;;;4.89;90.42
7834;BME280;3962;42.696;23.354;2022-12-29T00:27:43;96154.84;;;4.83;90.09
7834;BME280;3962;42.696;23.354;2022-12-29T00:30:28;96154.84;;;4.83;90.18
7834;BME280;3962;42.696;23.354;2022-12-29T00:33:15;96157.09;;;4.75;90.02
7834;BME280;3962;42.696;23.354;2022-12-29T00:36:02;96177.81;;;4.81;90.01
7834;BME280;3962;42.696;23.354;2022-12-29T00:38:31;96165.59;;;4.80;90.25
7834;BME280;3962;42.696;23.354;2022-12-29T00:41:16;96168.41;;;4.77;90.46
7834;BME280;3962;42.696;23.354;2022-12-29T00:44:00;96170.78;;;4.81;89.63
7834;BME280;3962;42.696;23.354;2022-12-29T00:46:36;96170.66;;;4.83;89.67
7834;BME280;3962;42.696;23.354;2022-12-29T00:49:06;96173.88;;;4.88;89.92
7834;BME280;3962;42.696;23.354;2022-12-29T00:51:51;96180.09;;;4.87;89.33
7834;BME280;3962;42.696;23.354;2022-12-29T00:54:18;96176.59;;;4.86;89.65
7834;BME280;3962;42.696;23.354;2022-12-29T00:56:46;96175.66;;;4.87;89.80
7834;BME280;3962;42.696;23.354;2022-12-29T00:59:12;96168.91;;;4.83;89.39
7834;BME280;3962;42.696;23.354;2022-12-29T01:01:40;96169.84;;;4.82;89.34
7834;BME280;3962;42.696;23.354;2022-12-29T01:04:09;96174.34;;;4.80;89.75
7834;BME280;3962;42.696;23.354;2022-12-29T01:06:37;96176.88;;;4.82;90.03
7834;BME280;3962;42.696;23.354;2022-12-29T01:09:04;96163.69;;;4.82;89.04
7834;BME280;3962;42.696;23.354;2022-12-29T01:11:49;96168.03;;;4.83;90.09
7834;BME280;3962;42.696;23.354;2022-12-29T01:14:17;96167.13;;;4.84;90.07
7834;BME280;3962;42.696;23.354;2022-12-29T01:16:44;96165.66;;;4.78;89.73
7834;BME280;3962;42.696;23.354;2022-12-29T01:19:13;96153.78;;;4.71;89.95
7834;BME280;3962;42.696;23.354;2022-12-29T01:21:40;96157.22;;;4.73;89.81
7834;BME280;3962;42.696;23.354;2022-12-29T01:24:07;96160.94;;;4.69;89.38
7834;BME280;3962;42.696;23.354;2022-12-29T01:26:34;96161.91;;;4.68;90.71
7834;BME280;3962;42.696;23.354;2022-12-29T01:29:00;96148.25;;;4.62;90.34
7834;BME280;3962;42.696;23.354;2022-12-29T01:31:27;96156.69;;;4.67;90.76
7834;BME280;3962;42.696;23.354;2022-12-29T01:33:54;96153.25;;;4.66;90.60
7834;BME280;3962;42.696;23.354;2022-12-29T01:36:23;96150.50;;;4.68;90.61
7834;BME280;3962;42.696;23.354;2022-12-29T01:38:51;96147.03;;;4.67;90.43
7834;BME280;3962;42.696;23.354;2022-12-29T01:41:17;96131.84;;;4.57;90.77
7834;BME280;3962;42.696;23.354;2022-12-29T01:43:46;96145.03;;;4.57;90.54
7834;BME280;3962;42.696;23.354;2022-12-29T01:46:19;96150.47;;;4.54;91.40
7834;BME280;3962;42.696;23.354;2022-12-29T01:48:52;96142.72;;;4.51;91.36
7834;BME280;3962;42.696;23.354;2022-12-29T01:51:23;96133.34;;;4.47;91.25
7834;BME280;3962;42.696;23.354;2022-12-29T01:53:52;96130.63;;;4.48;90.83
7834;BME280;3962;42.696;23.354;2022-12-29T01:56:22;96135.09;;;4.46;91.55
7834;BME280;3962;42.696;23.354;2022-12-29T01:59:05;96122.28;;;4.40;91.31
7834;BME280;3962;42.696;23.354;2022-12-29T02:01:33;96120.16;;;4.47;91.12
7834;BME280;3962;42.696;23.354;2022-12-29T02:03:59;96121.50;;;4.54;91.34
7834;BME280;3962;42.696;23.354;2022-12-29T02:06:32;96114.16;;;4.59;90.62
7834;BME280;3962;42.696;23.354;2022-12-29T02:09:00;96107.53;;;4.52;90.98
7834;BME280;3962;42.696;23.354;2022-12-29T02:11:29;96122.81;;;4.61;90.71
7834;BME280;3962;42.696;23.354;2022-12-29T02:13:56;96123.66;;;4.61;89.76
7834;BME280;3962;42.696;23.354;2022-12-29T02:16:35;96125.06;;;4.67;89.60
7834;BME280;3962;42.696;23.354;2022-12-29T02:19:39;96119.63;;;4.70;89.57
7834;BME280;3962;42.696;23.354;2022-12-29T02:22:19;96119.06;;;4.65;89.25
7834;BME280;3962;42.696;23.354;2022-12-29T02:27:57;96113.97;;;4.62;89.77
7834;BME280;3962;42.696;23.354;2022-12-29T02:30:53;96114.53;;;4.67;89.25
7834;BME280;3962;42.696;23.354;2022-12-29T02:33:34;96115.75;;;4.61;89.29
7834;BME280;3962;42.696;23.354;2022-12-29T02:36:09;96113.88;;;4.49;89.66
7834;BME280;3962;42.696;23.354;2022-12-29T02:38:48;96118.84;;;4.54;89.61
7834;BME280;3962;42.696;23.354;2022-12-29T02:41:23;96118.75;;;4.55;89.64
7834;BME280;3962;42.696;23.354;2022-12-29T02:43:57;96096.38;;;4.48;89.52
7834;BME280;3962;42.696;23.354;2022-12-29T02:46:33;96117.56;;;4.61;89.46
7834;BME280;3962;42.696;23.354;2022-12-29T02:49:07;96114.06;;;4.60;89.46
7834;BME280;3962;42.696;23.354;2022-12-29T02:51:41;96120.06;;;4.62;88.67
7834;BME280;3962;42.696;23.354;2022-12-29T02:54:10;96108.50;;;4.65;89.50
7834;BME280;3962;42.696;23.354;2022-12-29T02:56:55;96114.25;;;4.71;89.38
7834;BME280;3962;42.696;23.354;2022-12-29T02:59:22;96110.59;;;4.74;88.59
7834;BME280;3962;42.696;23.354;2022-12-29T03:02:11;96093.38;;;4.68;88.01
7834;BME280;3962;42.696;23.354;2022-12-29T03:04:55;96108.50;;;4.65;87.91
7834;BME280;3962;42.696;23.354;2022-12-29T03:07:34;96105.28;;;4.60;88.98
7834;BME280;3962;42.696;23.354;2022-12-29T03:10:12;96107.84;;;4.61;88.30
7834;BME280;3962;42.696;23.354;2022-12-29T03:12:47;96108.88;;;4.59;88.55
7834;BME280;3962;42.696;23.354;2022-12-29T03:15:36;96102.03;;;4.56;88.18
7834;BME280;3962;42.696;23.354;2022-12-29T03:18:28;96105.75;;;4.52;88.51
7834;BME280;3962;42.696;23.354;2022-12-29T03:21:02;96083.03;;;4.36;88.36
7834;BME280;3962;42.696;23.354;2022-12-29T03:23:32;96094.53;;;4.35;88.85
7834;BME280;3962;42.696;23.354;2022-12-29T03:26:04;96096.75;;;4.27;88.77
7834;BME280;3962;42.696;23.354;2022-12-29T03:28:36;96100.78;;;4.18;89.52
7834;BME280;3962;42.696;23.354;2022-12-29T03:31:06;96099.72;;;4.07;90.02
7834;BME280;3962;42.696;23.354;2022-12-29T03:33:37;96100.16;;;3.99;90.58
7834;BME280;3962;42.696;23.354;2022-12-29T03:36:07;96111.28;;;3.89;90.84
7834;BME280;3962;42.696;23.354;2022-12-29T03:38:39;96101.03;;;3.84;90.96
7834;BME280;3962;42.696;23.354;2022-12-29T03:41:11;96101.97;;;3.83;90.88
7834;BME280;3962;42.696;23.354;2022-12-29T03:43:40;96095.91;;;3.97;91.81
7834;BME280;3962;42.696;23.354;2022-12-29T03:46:07;96108.59;;;3.90;91.00
7834;BME280;3962;42.696;23.354;2022-12-29T03:48:35;96104.59;;;3.83;91.37
7834;BME280;3962;42.696;23.354;2022-12-29T03:51:02;96111.00;;;3.79;91.28
7834;BME280;3962;42.696;23.354;2022-12-29T03:53:29;96104.63;;;3.68;91.74
7834;BME280;3962;42.696;23.354;2022-12-29T03:55:56;96111.94;;;3.78;91.37
7834;BME280;3962;42.696;23.354;2022-12-29T03:58:23;96115.31;;;3.80;92.43
7834;BME280;3962;42.696;23.354;2022-12-29T04:00:50;96112.19;;;3.58;92.58
7834;BME280;3962;42.696;23.354;2022-12-29T04:03:16;96123.22;;;3.65;93.16
7834;BME280;3962;42.696;23.354;2022-12-29T04:05:44;96122.53;;;3.77;93.32
7834;BME280;3962;42.696;23.354;2022-12-29T04:08:11;96125.66;;;3.83;92.95
7834;BME280;3962;42.696;23.354;2022-12-29T04:10:38;96122.50;;;3.92;92.73
7834;BME280;3962;42.696;23.354;2022-12-29T04:13:05;96118.63;;;3.84;92.89
7834;BME280;3962;42.696;23.354;2022-12-29T04:15:32;96111.97;;;3.92;92.26
7834;BME280;3962;42.696;23.354;2022-12-29T04:17:58;96114.19;;;4.00;92.64
7834;BME280;3962;42.696;23.354;2022-12-29T04:20:25;96128.28;;;3.99;92.27
7834;BME280;3962;42.696;23.354;2022-12-29T04:23:10;96125.28;;;4.05;92.43
7834;BME280;3962;42.696;23.354;2022-12-29T04:25:37;96119.31;;;3.87;90.77
7834;BME280;3962;42.696;23.354;2022-12-29T04:28:04;96119.41;;;3.70;91.22
7834;BME280;3962;42.696;23.354;2022-12-29T04:30:33;96125.34;;;3.74;92.09
7834;BME280;3962;42.696;23.354;2022-12-29T04:33:00;96126.53;;;3.84;92.41
7834;BME280;3962;42.696;23.354;2022-12-29T04:35:27;96111.28;;;3.89;92.20
7834;BME280;3962;42.696;23.354;2022-12-29T04:37:53;96131.84;;;3.98;91.56
7834;BME280;3962;42.696;23.354;2022-12-29T04:40:22;96138.56;;;4.03;91.67
7834;BME280;3962;42.696;23.354;2022-12-29T04:42:49;96138.28;;;4.08;91.41
7834;BME280;3962;42.696;23.354;2022-12-29T04:45:16;96139.63;;;4.15;90.87
7834;BME280;3962;42.696;23.354;2022-12-29T04:47:43;96131.13;;;4.25;90.92
7834;BME280;3962;42.696;23.354;2022-12-29T04:50:10;96139.16;;;4.22;90.59
7834;BME280;3962;42.696;23.354;2022-12-29T04:52:37;96139.00;;;4.25;90.54
7834;BME280;3962;42.696;23.354;2022-12-29T04:55:05;96149.97;;;4.33;89.45
7834;BME280;3962;42.696;23.354;2022-12-29T04:57:33;96151.72;;;4.33;89.12
7834;BME280;3962;42.696;23.354;2022-12-29T05:00:00;96154.56;;;4.30;89.48
7834;BME280;3962;42.696;23.354;2022-12-29T05:02:27;96143.47;;;4.39;89.10
7834;BME280;3962;42.696;23.354;2022-12-29T05:04:54;96150.91;;;4.46;88.92
7834;BME280;3962;42.696;23.354;2022-12-29T05:07:20;96151.78;;;4.47;88.82
7834;BME280;3962;42.696;23.354;2022-12-29T05:09:47;96149.22;;;4.45;88.29
7834;BME280;3962;42.696;23.354;2022-12-29T05:12:14;96155.44;;;4.44;88.27
7834;BME280;3962;42.696;23.354;2022-12-29T05:14:42;96157.31;;;4.42;88.32
7834;BME280;3962;42.696;23.354;2022-12-29T05:17:09;96155.34;;;4.46;88.18
7834;BME280;3962;42.696;23.354;2022-12-29T05:19:36;96155.03;;;4.36;88.55
7834;BME280;3962;42.696;23.354;2022-12-29T05:22:03;96150.25;;;4.43;88.41
7834;BME280;3962;42.696;23.354;2022-12-29T05:24:30;96153.75;;;4.43;88.77
7834;BME280;3962;42.696;23.354;2022-12-29T05:26:57;96146.03;;;4.54;87.46
7834;BME280;3962;42.696;23.354;2022-12-29T05:29:24;96150.47;;;4.54;87.64
7834;BME280;3962;42.696;23.354;2022-12-29T05:31:52;96145.88;;;4.57;87.18
7834;BME280;3962;42.696;23.354;2022-12-29T05:34:18;96155.84;;;4.52;87.47
7834;BME280;3962;42.696;23.354;2022-12-29T05:36:45;96149.13;;;4.47;87.41
7834;BME280;3962;42.696;23.354;2022-12-29T05:39:12;96151.38;;;4.39;87.40
7834;BME280;3962;42.696;23.354;2022-12-29T05:41:39;96159.63;;;4.33;87.85
7834;BME280;3962;42.696;23.354;2022-12-29T05:44:06;96160.75;;;4.29;88.15
7834;BME280;3962;42.696;23.354;2022-12-29T05:46:32;96143.09;;;4.15;87.58
7834;BME280;3962;42.696;23.354;2022-12-29T05:49:00;96154.03;;;4.23;88.23
7834;BME280;3962;42.696;23.354;2022-12-29T05:51:27;96153.97;;;4.25;88.68
7834;BME280;3962;42.696;23.354;2022-12-29T05:53:54;96162.72;;;4.25;88.45
7834;BME280;3962;42.696;23.354;2022-12-29T05:56:21;96156.09;;;4.18;88.23
7834;BME280;3962;42.696;23.354;2022-12-29T05:58:48;96151.38;;;4.09;88.06
7834;BME280;3962;42.696;23.354;2022-12-29T06:01:15;96162.91;;;4.07;88.73
7834;BME280;3962;42.696;23.354;2022-12-29T06:03:41;96163.00;;;4.05;88.66
7834;BME280;3962;42.696;23.354;2022-12-29T06:06:10;96176.50;;;4.15;88.47
7834;BME280;3962;42.696;23.354;2022-12-29T06:08:36;96175.28;;;4.20;88.86
7834;BME280;3962;42.696;23.354;2022-12-29T06:11:03;96157.19;;;4.14;88.55
7834;BME280;3962;42.696;23.354;2022-12-29T06:13:30;96181.66;;;4.32;88.65
7834;BME280;3962;42.696;23.354;2022-12-29T06:15:57;96179.69;;;4.35;88.60
7834;BME280;3962;42.696;23.354;2022-12-29T06:18:24;96174.22;;;4.38;89.21
7834;BME280;3962;42.696;23.354;2022-12-29T06:20:51;96174.97;;;4.40;88.99
7834;BME280;3962;42.696;23.354;2022-12-29T06:23:19;96176.84;;;4.38;89.30
7834;BME280;3962;42.696;23.354;2022-12-29T06:25:47;96179.56;;;4.52;89.60
7834;BME280;3962;42.696;23.354;2022-12-29T06:28:14;96164.59;;;4.53;89.34
7834;BME280;3962;42.696;23.354;2022-12-29T06:30:43;96175.75;;;4.72;88.41
7834;BME280;3962;42.696;23.354;2022-12-29T06:33:10;96178.19;;;4.75;87.86
7834;BME280;3962;42.696;23.354;2022-12-29T06:35:36;96170.38;;;4.73;87.41
7834;BME280;3962;42.696;23.354;2022-12-29T06:38:04;96174.72;;;4.74;87.47
7834;BME280;3962;42.696;23.354;2022-12-29T06:40:32;96184.13;;;4.78;87.74
7834;BME280;3962;42.696;23.354;2022-12-29T06:42:59;96174.72;;;4.74;87.39
7834;BME280;3962;42.696;23.354;2022-12-29T06:45:25;96189.50;;;4.91;87.92
7834;BME280;3962;42.696;23.354;2022-12-29T06:47:52;96187.09;;;5.02;87.04
7834;BME280;3962;42.696;23.354;2022-12-29T06:50:19;96189.47;;;5.06;87.35
7834;BME280;3962;42.696;23.354;2022-12-29T06:52:46;96190.03;;;5.11;86.70
7834;BME280;3962;42.696;23.354;2022-12-29T06:55:13;96196.31;;;5.23;86.42
7834;BME280;3962;42.696;23.354;2022-12-29T06:57:41;96197.50;;;5.33;86.13
7834;BME280;3962;42.696;23.354;2022-12-29T07:00:09;96170.34;;;5.17;85.90
7834;BME280;3962;42.696;23.354;2022-12-29T07:02:36;96201.25;;;5.43;85.80
7834;BME280;3962;42.696;23.354;2022-12-29T07:05:03;96200.38;;;5.56;85.40
7834;BME280;3962;42.696;23.354;2022-12-29T07:07:30;96203.53;;;5.63;83.75
7834;BME280;3962;42.696;23.354;2022-12-29T07:09:56;96207.84;;;5.64;84.99
7834;BME280;3962;42.696;23.354;2022-12-29T07:12:23;96202.28;;;5.68;84.58
7834;BME280;3962;42.696;23.354;2022-12-29T07:14:51;96198.78;;;5.68;83.57
7834;BME280;3962;42.696;23.354;2022-12-29T07:17:18;96191.50;;;5.71;84.34
7834;BME280;3962;42.696;23.354;2022-12-29T07:19:45;96198.88;;;5.80;84.54
7834;BME280;3962;42.696;23.354;2022-12-29T07:22:12;96191.91;;;5.79;83.09
7834;BME280;3962;42.696;23.354;2022-12-29T07:24:39;96191.25;;;5.90;83.76
7834;BME280;3962;42.696;23.354;2022-12-29T07:27:06;96185.44;;;5.97;84.09
7834;BME280;3962;42.696;23.354;2022-12-29T07:29:32;96183.38;;;6.02;83.71
7834;BME280;3962;42.696;23.354;2022-12-29T07:32:01;96192.38;;;6.26;82.59
7834;BME280;3962;42.696;23.354;2022-12-29T07:34:28;96191.03;;;6.33;82.81
7834;BME280;3962;42.696;23.354;2022-12-29T07:36:55;96196.59;;;6.29;81.90
7834;BME280;3962;42.696;23.354;2022-12-29T07:39:22;96195.44;;;6.33;82.64
7834;BME280;3962;42.696;23.354;2022-12-29T07:41:48;96201.47;;;6.08;82.20
7834;BME280;3962;42.696;23.354;2022-12-29T07:44:15;96195.13;;;6.37;83.27
7834;BME280;3962;42.696;23.354;2022-12-29T07:46:42;96194.16;;;6.65;81.32
7834;BME280;3962;42.696;23.354;2022-12-29T07:49:10;96200.00;;;6.70;80.64
7834;BME280;3962;42.696;23.354;2022-12-29T07:51:37;96199.53;;;6.90;79.93
7834;BME280;3962;42.696;23.354;2022-12-29T07:54:04;96201.44;;;7.00;79.46
7834;BME280;3962;42.696;23.354;2022-12-29T07:56:31;96201.34;;;7.02;78.68
7834;BME280;3962;42.696;23.354;2022-12-29T07:58:58;96200.94;;;7.20;78.36
7834;BME280;3962;42.696;23.354;2022-12-29T08:01:24;96207.63;;;7.38;79.30
7834;BME280;3962;42.696;23.354;2022-12-29T08:03:51;96199.44;;;7.66;78.59
7834;BME280;3962;42.696;23.354;2022-12-29T08:06:19;96206.72;;;7.87;76.45
7834;BME280;3962;42.696;23.354;2022-12-29T08:08:47;96212.22;;;7.97;76.64
7834;BME280;3962;42.696;23.354;2022-12-29T08:11:13;96209.59;;;8.33;77.39
7834;BME280;3962;42.696;23.354;2022-12-29T08:13:40;96213.09;;;8.57;74.67
7834;BME280;3962;42.696;23.354;2022-12-29T08:16:07;96209.75;;;9.80;77.28
7834;BME280;3962;42.696;23.354;2022-12-29T08:18:34;96197.03;;;10.39;68.93
7834;BME280;3962;42.696;23.354;2022-12-29T08:21:02;96195.53;;;11.19;71.50
7834;BME280;3962;42.696;23.354;2022-12-29T08:23:30;96203.69;;;11.89;63.50
7834;BME280;3962;42.696;23.354;2022-12-29T08:25:58;96200.28;;;12.47;64.44
7834;BME280;3962;42.696;23.354;2022-12-29T08:28:24;96202.78;;;13.16;60.67
7834;BME280;3962;42.696;23.354;2022-12-29T08:30:52;96197.09;;;13.67;57.81
7834;BME280;3962;42.696;23.354;2022-12-29T08:33:19;96201.19;;;14.07;56.97
7834;BME280;3962;42.696;23.354;2022-12-29T08:35:46;96194.69;;;13.83;57.53
7834;BME280;3962;42.696;23.354;2022-12-29T08:38:12;96205.69;;;14.16;54.33
7834;BME280;3962;42.696;23.354;2022-12-29T08:40:41;96200.16;;;13.81;55.26
7834;BME280;3962;42.696;23.354;2022-12-29T08:43:08;96206.75;;;13.87;54.73
7834;BME280;3962;42.696;23.354;2022-12-29T08:45:34;96205.63;;;13.89;54.22
7834;BME280;3962;42.696;23.354;2022-12-29T08:48:04;96208.38;;;14.16;53.86
7834;BME280;3962;42.696;23.354;2022-12-29T08:50:31;96203.03;;;13.61;55.39
7834;BME280;3962;42.696;23.354;2022-12-29T08:52:58;96195.91;;;13.23;55.19
7834;BME280;3962;42.696;23.354;2022-12-29T08:55:25;96193.31;;;12.84;56.94
7834;BME280;3962;42.696;23.354;2022-12-29T08:57:53;96191.53;;;13.13;56.29
7834;BME280;3962;42.696;23.354;2022-12-29T09:00:20;96185.94;;;12.57;58.15
7834;BME280;3962;42.696;23.354;2022-12-29T09:02:47;96184.16;;;12.67;58.20
7834;BME280;3962;42.696;23.354;2022-12-29T09:05:14;96182.09;;;13.18;56.39
7834;BME280;3962;42.696;23.354;2022-12-29T09:07:41;96179.00;;;12.94;57.98
7834;BME280;3962;42.696;23.354;2022-12-29T09:10:08;96176.97;;;12.68;58.20
7834;BME280;3962;42.696;23.354;2022-12-29T09:12:34;96177.34;;;12.35;59.10
7834;BME280;3962;42.696;23.354;2022-12-29T09:15:04;96184.19;;;11.88;61.23
7834;BME280;3962;42.696;23.354;2022-12-29T09:17:31;96175.56;;;12.54;59.88
7834;BME280;3962;42.696;23.354;2022-12-29T09:20:11;96164.63;;;12.67;58.48
7834;BME280;3962;42.696;23.354;2022-12-29T09:22:38;96161.75;;;12.30;59.77
7834;BME280;3962;42.696;23.354;2022-12-29T09:25:05;96164.31;;;12.11;60.62
7834;BME280;3962;42.696;23.354;2022-12-29T09:27:32;96173.13;;;11.52;61.77
7834;BME280;3962;42.696;23.354;2022-12-29T09:29:59;96171.16;;;11.03;64.19
7834;BME280;3962;42.696;23.354;2022-12-29T09:32:28;96158.34;;;10.97;65.57
7834;BME280;3962;42.696;23.354;2022-12-29T09:34:55;96160.34;;;11.05;64.72
7834;BME280;3962;42.696;23.354;2022-12-29T09:37:21;96163.53;;;11.40;64.04
7834;BME280;3962;42.696;23.354;2022-12-29T09:39:48;96162.34;;;11.53;63.44
7834;BME280;3962;42.696;23.354;2022-12-29T09:42:19;96163.28;;;11.63;62.78
7834;BME280;3962;42.696;23.354;2022-12-29T09:44:56;96157.13;;;11.42;62.56
7834;BME280;3962;42.696;23.354;2022-12-29T09:47:28;96152.19;;;11.38;63.20
7834;BME280;3962;42.696;23.354;2022-12-29T09:50:02;96152.63;;;11.02;64.31
7834;BME280;3962;42.696;23.354;2022-12-29T09:52:32;96149.38;;;10.98;65.41
7834;BME280;3962;42.696;23.354;2022-12-29T09:55:03;96141.97;;;10.82;65.87
7834;BME280;3962;42.696;23.354;2022-12-29T09:57:34;96128.09;;;10.36;67.04
7834;BME280;3962;42.696;23.354;2022-12-29T10:00:09;96141.09;;;9.85;68.60
7834;BME280;3962;42.696;23.354;2022-12-29T10:02:42;96139.28;;;9.75;69.66
7834;BME280;3962;42.696;23.354;2022-12-29T10:05:18;96123.81;;;10.13;69.08
7834;BME280;3962;42.696;23.354;2022-12-29T10:07:52;96121.91;;;10.46;68.03
7834;BME280;3962;42.696;23.354;2022-12-29T10:10:31;96119.28;;;10.35;67.35
7834;BME280;3962;42.696;23.354;2022-12-29T10:13:13;96126.25;;;10.16;68.67
7834;BME280;3962;42.696;23.354;2022-12-29T10:15:52;96122.13;;;9.90;69.18
7834;BME280;3962;42.696;23.354;2022-12-29T10:18:48;96112.22;;;9.81;69.96
7834;BME280;3962;42.696;23.354;2022-12-29T10:21:26;96116.69;;;9.91;69.83
7834;BME280;3962;42.696;23.354;2022-12-29T10:23:56;96115.72;;;9.92;69.89
7834;BME280;3962;42.696;23.354;2022-12-29T10:26:26;96109.56;;;9.92;69.94
7834;BME280;3962;42.696;23.354;2022-12-29T10:28:56;96116.47;;;9.83;70.66
7834;BME280;3962;42.696;23.354;2022-12-29T10:31:25;96115.50;;;9.73;70.57
7834;BME280;3962;42.696;23.354;2022-12-29T10:34:02;96101.59;;;9.92;70.80
7834;BME280;3962;42.696;23.354;2022-12-29T10:36:34;96098.19;;;10.01;69.88
7834;BME280;3962;42.696;23.354;2022-12-29T10:39:12;96094.22;;;10.06;69.73
7834;BME280;3962;42.696;23.354;2022-12-29T10:41:45;96093.34;;;10.06;70.45
7834;BME280;3962;42.696;23.354;2022-12-29T10:44:15;96090.22;;;10.01;70.04
7834;BME280;3962;42.696;23.354;2022-12-29T10:46:44;96092.03;;;10.00;70.32
7834;BME280;3962;42.696;23.354;2022-12-29T10:49:16;96082.94;;;10.14;70.47
7834;BME280;3962;42.696;23.354;2022-12-29T10:51:46;96081.47;;;10.21;69.87
7834;BME280;3962;42.696;23.354;2022-12-29T10:54:18;96077.34;;;10.28;69.65
7834;BME280;3962;42.696;23.354;2022-12-29T10:56:50;96079.03;;;10.29;69.66
7834;BME280;3962;42.696;23.354;2022-12-29T10:59:22;96075.00;;;10.45;68.93
7834;BME280;3962;42.696;23.354;2022-12-29T11:01:58;96073.63;;;10.51;68.77
7834;BME280;3962;42.696;23.354;2022-12-29T11:04:43;96067.50;;;10.39;68.39
7834;BME280;3962;42.696;23.354;2022-12-29T11:07:16;96065.13;;;10.25;69.15
7834;BME280;3962;42.696;23.354;2022-12-29T11:09:44;96058.50;;;10.31;68.94
7834;BME280;3962;42.696;23.354;2022-12-29T11:12:24;96058.28;;;10.23;69.36
7834;BME280;3962;42.696;23.354;2022-12-29T11:15:02;96057.22;;;10.14;69.69
7834;BME280;3962;42.696;23.354;2022-12-29T11:17:44;96055.03;;;10.19;69.28
7834;BME280;3962;42.696;23.354;2022-12-29T11:20:33;96049.47;;;10.00;69.39
7834;BME280;3962;42.696;23.354;2022-12-29T11:23:00;96041.56;;;9.89;69.72
7834;BME280;3962;42.696;23.354;2022-12-29T11:25:28;96047.84;;;9.88;70.06
7834;BME280;3962;42.696;23.354;2022-12-29T11:27:56;96050.25;;;9.91;70.39
7834;BME280;3962;42.696;23.354;2022-12-29T11:30:24;96047.19;;;9.96;70.44
7834;BME280;3962;42.696;23.354;2022-12-29T11:32:52;96045.88;;;10.12;70.03
7834;BME280;3962;42.696;23.354;2022-12-29T11:35:33;96041.97;;;10.16;70.84
7834;BME280;3962;42.696;23.354;2022-12-29T11:38:01;96044.22;;;10.32;70.76
7834;BME280;3962;42.696;23.354;2022-12-29T11:40:28;96031.75;;;10.32;68.94
7834;BME280;3962;42.696;23.354;2022-12-29T11:42:57;96036.41;;;10.19;69.84
7834;BME280;3962;42.696;23.354;2022-12-29T11:45:30;96027.31;;;10.22;69.84
7834;BME280;3962;42.696;23.354;2022-12-29T11:47:59;96026.94;;;10.26;70.00
7834;BME280;3962;42.696;23.354;2022-12-29T11:50:30;96030.91;;;10.32;70.18
7834;BME280;3962;42.696;23.354;2022-12-29T11:53:01;96007.66;;;10.13;70.27
7834;BME280;3962;42.696;23.354;2022-12-29T11:55:30;96031.59;;;10.13;71.19
7834;BME280;3962;42.696;23.354;2022-12-29T11:58:00;96026.13;;;10.15;71.36
7834;BME280;3962;42.696;23.354;2022-12-29T12:00:31;96029.47;;;10.28;71.39
7834;BME280;3962;42.696;23.354;2022-12-29T12:03:02;96022.19;;;10.30;71.08
7834;BME280;3962;42.696;23.354;2022-12-29T12:05:36;96023.53;;;10.35;70.76
7834;BME280;3962;42.696;23.354;2022-12-29T12:08:12;96013.34;;;10.40;70.94
7834;BME280;3962;42.696;23.354;2022-12-29T12:10:44;96020.34;;;10.41;71.17
7834;BME280;3962;42.696;23.354;2022-12-29T12:13:19;96016.13;;;10.39;71.06
7834;BME280;3962;42.696;23.354;2022-12-29T12:15:52;96018.34;;;10.34;70.88
7834;BME280;3962;42.696;23.354;2022-12-29T12:18:30;96021.31;;;10.40;72.05
7834;BME280;3962;42.696;23.354;2022-12-29T12:21:05;96015.88;;;10.42;70.96
7834;BME280;3962;42.696;23.354;2022-12-29T12:23:48;96011.34;;;10.53;71.20
7834;BME280;3962;42.696;23.354;2022-12-29T12:26:20;96017.44;;;10.65;70.18
7834;BME280;3962;42.696;23.354;2022-12-29T12:28:52;96009.88;;;10.70;69.67
7834;BME280;3962;42.696;23.354;2022-12-29T12:31:27;96009.56;;;10.63;69.89
7834;BME280;3962;42.696;23.354;2022-12-29T12:34:03;96005.31;;;10.51;70.16
7834;BME280;3962;42.696;23.354;2022-12-29T12:36:49;95999.91;;;10.42;70.81
7834;BME280;3962;42.696;23.354;2022-12-29T12:39:26;96005.50;;;10.39;71.16
7834;BME280;3962;42.696;23.354;2022-12-29T12:42:06;96000.41;;;10.36;71.24
7834;BME280;3962;42.696;23.354;2022-12-29T12:44:44;96001.00;;;10.39;71.18
7834;BME280;3962;42.696;23.354;2022-12-29T12:47:33;95999.13;;;10.51;70.92
7834;BME280;3962;42.696;23.354;2022-12-29T12:50:22;95998.16;;;10.52;70.70
7834;BME280;3962;42.696;23.354;2022-12-29T12:53:11;96001.88;;;10.40;70.95
7834;BME280;3962;42.696;23.354;2022-12-29T12:55:54;95996.53;;;10.40;71.07
7834;BME280;3962;42.696;23.354;2022-12-29T12:58:31;95996.41;;;10.41;70.77
7834;BME280;3962;42.696;23.354;2022-12-29T13:01:11;95999.63;;;10.24;71.22
7834;BME280;3962;42.696;23.354;2022-12-29T13:03:57;95996.75;;;10.16;72.00
7834;BME280;3962;42.696;23.354;2022-12-29T13:06:35;95988.78;;;10.16;72.09
7834;BME280;3962;42.696;23.354;2022-12-29T13:09:23;95994.81;;;10.18;72.76
7834;BME280;3962;42.696;23.354;2022-12-29T13:12:04;95996.75;;;10.16;71.96
7834;BME280;3962;42.696;23.354;2022-12-29T13:14:44;96000.59;;;10.23;72.55
7834;BME280;3962;42.696;23.354;2022-12-29T13:17:22;95998.25;;;10.30;72.27
7834;BME280;3962;42.696;23.354;2022-12-29T13:19:59;96006.47;;;10.58;71.99
7834;BME280;3962;42.696;23.354;2022-12-29T13:22:34;95997.84;;;10.66;70.87
7834;BME280;3962;42.696;23.354;2022-12-29T13:25:16;96000.41;;;10.77;70.22
7834;BME280;3962;42.696;23.354;2022-12-29T13:27:51;96005.31;;;10.72;70.25
7834;BME280;3962;42.696;23.354;2022-12-29T13:30:22;96004.72;;;10.48;71.34
7834;BME280;3962;42.696;23.354;2022-12-29T13:32:56;96006.44;;;10.38;71.98
7834;BME280;3962;42.696;23.354;2022-12-29T13:35:41;96007.56;;;10.35;72.16
7834;BME280;3962;42.696;23.354;2022-12-29T13:38:14;95995.88;;;10.27;72.45
7834;BME280;3962;42.696;23.354;2022-12-29T13:40:45;95998.63;;;10.36;72.43
7834;BME280;3962;42.696;23.354;2022-12-29T13:43:15;95998.81;;;10.24;72.19